createdAt,value
2023-01-27T00:01:37.765Z,3.90
2023-01-27T00:06:44.855Z,3.90
2023-01-27T00:12:09.087Z,3.90
2023-01-27T00:17:16.614Z,3.90
2023-01-27T00:22:37.196Z,3.90
2023-01-27T00:27:44.503Z,3.92
2023-01-27T00:33:09.108Z,3.91
2023-01-27T00:38:16.803Z,3.89
2023-01-27T00:43:24.262Z,3.90
2023-01-27T00:48:31.339Z,3.90
2023-01-27T00:53:38.453Z,3.89
2023-01-27T00:58:45.523Z,3.89
2023-01-27T01:03:52.860Z,3.88
2023-01-27T01:09:00.001Z,3.89
2023-01-27T01:14:06.966Z,3.89
2023-01-27T01:19:17.693Z,3.89
2023-01-27T01:24:25.389Z,3.89
2023-01-27T01:29:32.807Z,3.89
2023-01-27T01:34:40.125Z,3.89
2023-01-27T01:39:47.012Z,3.88
2023-01-27T01:45:14.698Z,3.87
2023-01-27T01:50:22.012Z,3.91
2023-01-27T01:55:29.692Z,3.89
2023-01-27T02:00:37.050Z,3.89
2023-01-27T02:05:45.649Z,3.88
2023-01-27T02:10:54.802Z,3.87
2023-01-27T02:16:03.123Z,3.87
2023-01-27T02:21:10.575Z,3.88
2023-01-27T02:26:19.656Z,3.87
2023-01-27T02:31:26.728Z,3.87
2023-01-27T02:36:35.326Z,3.87
2023-01-27T02:41:43.525Z,3.87
2023-01-27T02:46:50.627Z,3.90
2023-01-27T02:51:57.511Z,3.89
2023-01-27T02:57:04.738Z,3.87
2023-01-27T03:02:15.144Z,3.86
2023-01-27T03:07:22.379Z,3.84
2023-01-27T03:12:29.648Z,3.83
2023-01-27T03:17:53.813Z,3.82
2023-01-27T03:23:00.945Z,3.82
2023-01-27T03:28:08.411Z,3.81
2023-01-27T03:33:15.441Z,3.81
2023-01-27T03:38:39.789Z,3.80
2023-01-27T03:44:04.300Z,3.79
2023-01-27T03:49:11.709Z,3.79
2023-01-27T03:54:19.089Z,3.79
2023-01-27T03:59:26.399Z,3.79
2023-01-27T04:04:50.518Z,3.78
2023-01-27T04:09:57.889Z,3.77
2023-01-27T04:15:05.240Z,3.77
2023-01-27T04:20:14.057Z,3.76
2023-01-27T04:25:21.521Z,3.76
2023-01-27T04:30:28.798Z,3.75
2023-01-27T04:35:39.134Z,3.76
2023-01-27T04:40:47.655Z,3.76
2023-01-27T04:45:55.113Z,3.74
2023-01-27T04:51:02.457Z,3.74
2023-01-27T04:56:19.179Z,3.74
2023-01-27T05:01:26.380Z,3.74
2023-01-27T05:06:33.947Z,3.73
2023-01-27T05:11:41.178Z,3.73
2023-01-27T05:16:48.773Z,3.72
2023-01-27T05:21:55.866Z,3.72
2023-01-27T05:27:02.849Z,3.71
2023-01-27T05:32:09.800Z,3.70
2023-01-27T05:37:17.030Z,3.71
2023-01-27T05:42:24.347Z,3.70
2023-01-27T05:47:31.445Z,3.69
2023-01-27T05:52:39.035Z,3.69
2023-01-27T05:57:46.566Z,3.69
2023-01-27T06:02:54.270Z,3.68
2023-01-27T06:08:01.656Z,3.69
2023-01-27T06:13:09.060Z,3.68
2023-01-27T06:18:16.942Z,3.67
2023-01-27T06:23:24.129Z,3.67
2023-01-27T06:28:31.320Z,3.66
2023-01-27T06:33:38.362Z,3.67
2023-01-27T06:38:46.034Z,3.67
2023-01-27T06:43:53.274Z,3.66
2023-01-27T06:49:00.581Z,3.66
2023-01-27T06:54:08.507Z,3.65
2023-01-27T06:59:15.938Z,3.64
2023-01-27T07:04:23.794Z,3.65
2023-01-27T07:09:37.554Z,3.65
2023-01-27T07:14:50.338Z,3.66
2023-01-27T07:19:57.455Z,3.65
2023-01-27T07:25:05.067Z,3.64
2023-01-27T07:30:13.860Z,3.64
2023-01-27T07:35:21.107Z,3.63
2023-01-27T07:40:28.600Z,3.63
2023-01-27T07:45:35.962Z,3.63
2023-01-27T07:50:43.481Z,3.63
2023-01-27T07:55:50.509Z,3.63
2023-01-27T08:00:57.820Z,3.63
2023-01-27T08:06:08.092Z,3.62
2023-01-27T08:11:16.481Z,3.63
2023-01-27T08:16:23.758Z,3.62
2023-01-27T08:21:33.325Z,3.62
2023-01-27T08:26:40.605Z,3.62
2023-01-27T08:31:47.630Z,3.63
2023-01-27T08:36:54.987Z,3.62
2023-01-27T08:42:02.632Z,3.61
2023-01-27T08:47:10.179Z,3.61
2023-01-27T08:52:17.771Z,3.61
2023-01-27T08:57:25.603Z,3.61
2023-01-27T09:02:32.821Z,3.61
2023-01-27T09:07:39.964Z,3.60
2023-01-27T09:12:47.180Z,3.60
2023-01-27T09:17:54.189Z,3.60
2023-01-27T09:23:02.173Z,3.59
2023-01-27T09:28:17.897Z,3.60
2023-01-27T09:33:26.264Z,3.61
2023-01-27T09:38:34.940Z,3.60
2023-01-27T09:43:56.100Z,3.60
2023-01-27T09:49:12.507Z,3.59
2023-01-27T09:54:25.588Z,3.60
2023-01-27T09:59:45.344Z,3.60
2023-01-27T10:05:01.403Z,3.60
2023-01-27T10:10:24.736Z,3.62
2023-01-27T10:15:40.637Z,3.61
2023-01-27T10:20:49.981Z,3.61
2023-01-27T10:26:00.472Z,3.60
2023-01-27T10:31:11.097Z,3.59
2023-01-27T10:36:22.182Z,3.59
2023-01-27T10:41:35.351Z,3.59
2023-01-27T10:46:46.781Z,3.59
2023-01-27T10:51:56.707Z,3.59
2023-01-27T10:57:07.621Z,3.59
2023-01-27T11:02:20.474Z,3.59
2023-01-27T11:07:28.061Z,3.59
2023-01-27T11:12:36.971Z,3.60
2023-01-27T11:17:47.771Z,3.59
2023-01-27T11:22:57.443Z,3.60
2023-01-27T11:28:11.689Z,3.59
2023-01-27T11:33:25.762Z,3.61
2023-01-27T11:38:33.241Z,3.61
2023-01-27T11:43:40.787Z,3.60
2023-01-27T11:48:50.621Z,3.60
2023-01-27T11:54:04.430Z,3.60
2023-01-27T11:59:16.346Z,3.62
2023-01-27T12:04:25.972Z,3.62
2023-01-27T12:09:37.709Z,3.62
2023-01-27T12:14:49.301Z,3.61
2023-01-27T12:19:57.942Z,3.61
2023-01-27T12:25:06.881Z,3.60
2023-01-27T12:30:22.291Z,3.60
2023-01-27T12:35:32.002Z,3.60
2023-01-27T12:40:42.271Z,3.61
2023-01-27T12:46:05.048Z,3.62
2023-01-27T12:51:18.123Z,3.64
2023-01-27T12:56:26.353Z,3.64
2023-01-27T13:01:35.184Z,3.64
2023-01-27T13:06:47.954Z,3.64
2023-01-27T13:11:56.666Z,3.65
2023-01-27T13:17:04.082Z,3.64
2023-01-27T13:22:15.455Z,3.65
2023-01-27T13:27:23.945Z,3.66
2023-01-27T13:32:33.084Z,3.66
2023-01-27T13:37:42.612Z,3.67
2023-01-27T13:42:53.393Z,3.67
2023-01-27T13:48:02.271Z,3.67
2023-01-27T13:53:12.814Z,3.67
2023-01-27T13:58:26.811Z,3.68
2023-01-27T14:03:40.804Z,3.68
2023-01-27T14:08:51.776Z,3.68
2023-01-27T14:14:15.039Z,3.68
2023-01-27T14:19:31.023Z,3.68
2023-01-27T14:24:42.415Z,3.68
2023-01-27T14:29:52.795Z,3.68
2023-01-27T14:35:08.102Z,3.67
2023-01-27T14:40:20.022Z,3.68
2023-01-27T14:45:31.312Z,3.66
2023-01-27T14:50:43.179Z,3.65
2023-01-27T14:55:55.234Z,3.66
2023-01-27T15:01:09.257Z,3.65
2023-01-27T15:06:22.761Z,3.67
2023-01-27T15:11:38.485Z,3.67
2023-01-27T15:16:52.554Z,3.67
2023-01-27T15:22:11.661Z,3.65
2023-01-27T15:27:19.151Z,3.66
2023-01-27T15:32:39.973Z,3.65
2023-01-27T15:38:00.801Z,3.66
2023-01-27T15:43:08.873Z,3.67
2023-01-27T15:48:18.032Z,3.65
2023-01-27T15:53:29.909Z,3.66
2023-01-27T15:58:40.182Z,3.67
2023-01-27T16:03:49.242Z,3.67
2023-01-27T16:08:59.459Z,3.67
2023-01-27T16:14:20.233Z,3.66
2023-01-27T16:19:30.945Z,3.69
2023-01-27T16:24:43.541Z,3.68
2023-01-27T16:29:53.801Z,3.68
2023-01-27T16:35:03.282Z,3.66
2023-01-27T16:40:17.843Z,3.66
2023-01-27T16:45:26.872Z,3.66
2023-01-27T16:50:38.802Z,3.66
2023-01-27T16:55:57.203Z,3.64
2023-01-27T17:01:04.962Z,3.66
2023-01-27T17:06:17.054Z,3.64
2023-01-27T17:11:25.987Z,3.65
2023-01-27T17:16:35.350Z,3.65
2023-01-27T17:21:44.204Z,3.65
2023-01-27T17:26:58.343Z,3.63
2023-01-27T17:32:06.270Z,3.62
2023-01-27T17:37:17.938Z,3.62
2023-01-27T17:42:26.526Z,3.64
2023-01-27T17:47:33.858Z,3.64
2023-01-27T17:52:52.195Z,3.63
2023-01-27T17:58:04.275Z,3.64
2023-01-27T18:03:15.758Z,3.64
2023-01-27T18:08:23.841Z,3.64
2023-01-27T18:13:40.900Z,3.64
2023-01-27T18:18:48.591Z,3.63
2023-01-27T18:23:56.372Z,3.62
2023-01-27T18:29:05.552Z,3.60
2023-01-27T18:34:24.596Z,3.60
2023-01-27T18:39:37.083Z,3.62
2023-01-27T18:44:44.094Z,3.62
2023-01-27T18:49:55.518Z,3.59
2023-01-27T18:55:04.672Z,3.58
2023-01-27T19:00:12.964Z,3.59
2023-01-27T19:05:22.142Z,3.59
2023-01-27T19:10:29.883Z,3.59
2023-01-27T19:15:38.964Z,3.61
2023-01-27T19:20:46.512Z,3.61
2023-01-27T19:25:55.208Z,3.60
2023-01-27T19:31:02.677Z,3.60
2023-01-27T19:36:17.735Z,3.60
2023-01-27T19:41:25.036Z,3.60
2023-01-27T19:46:33.453Z,3.60
2023-01-27T19:51:40.700Z,3.61
2023-01-27T19:56:47.837Z,3.60
2023-01-27T20:01:56.849Z,3.60
2023-01-27T20:07:04.184Z,3.59
2023-01-27T20:12:16.249Z,3.59
2023-01-27T20:17:23.602Z,3.60
2023-01-27T20:22:30.800Z,3.59
2023-01-27T20:27:38.055Z,3.59
2023-01-27T20:32:45.640Z,3.59
2023-01-27T20:37:53.623Z,3.60
2023-01-27T20:43:02.681Z,3.58
2023-01-27T20:48:13.002Z,3.59
2023-01-27T20:53:20.581Z,3.59
2023-01-27T20:58:28.134Z,3.59
2023-01-27T21:03:35.591Z,3.59
2023-01-27T21:08:44.075Z,3.59
2023-01-27T21:13:53.122Z,3.58
2023-01-27T21:19:00.594Z,3.58
2023-01-27T21:24:08.832Z,3.57
2023-01-27T21:29:16.345Z,3.58
2023-01-27T21:34:23.627Z,3.58
2023-01-27T21:39:30.870Z,3.59
2023-01-27T21:51:04.692Z,3.62
2023-01-27T21:56:12.718Z,3.59
2023-01-27T22:01:20.023Z,3.57
2023-01-27T22:06:27.151Z,3.58
2023-01-27T22:11:34.042Z,3.58
2023-01-27T22:16:41.308Z,3.58
2023-01-27T22:21:48.483Z,3.58
2023-01-27T22:26:55.733Z,3.57
2023-01-27T22:32:03.042Z,3.57
2023-01-27T22:37:10.443Z,3.56
2023-01-27T22:42:17.512Z,3.56
2023-01-27T22:47:24.654Z,3.56
2023-01-27T22:52:32.077Z,3.55
2023-01-27T22:57:39.626Z,3.55
2023-01-27T23:02:46.821Z,3.55
2023-01-27T23:07:54.387Z,3.54
2023-01-27T23:13:01.563Z,3.54
2023-01-27T23:18:11.894Z,3.52
2023-01-27T23:23:20.063Z,3.53
2023-01-27T23:28:27.422Z,3.54
2023-01-27T23:33:37.533Z,3.53
2023-01-27T23:38:44.562Z,3.54
2023-01-27T23:43:55.638Z,3.53
2023-01-27T23:49:02.630Z,3.54
2023-01-27T23:54:09.901Z,3.53
2023-01-27T23:59:17.272Z,3.53
